Time;durP1;ratioP1;P1;durP2;ratioP2;P2;SDS_P1;SDS_P2;PMS_P1;PMS_P2;Temp;Humidity;BMP_temperature;BMP_pressure;BME280_temperature;BME280_humidity;BME280_pressure;Samples;Min_cycle;Max_cycle;Signal;HPM_P1;HPM_P2
2021/09/08 00:01:46;;;;;;;10.43;8.30;;;20.10;93.80;;;;;;5112419;28;20122;-36
2021/09/08 00:04:11;;;;;;;9.85;8.23;;;20.00;93.80;;;;;;5113766;28;20019;-38
2021/09/08 00:06:37;;;;;;;11.25;8.98;;;20.10;93.80;;;;;;5113254;28;20020;-39
2021/09/08 00:09:02;;;;;;;10.60;8.20;;;20.00;93.70;;;;;;5112777;28;20481;-40
2021/09/08 00:11:31;;;;;;;11.02;8.85;;;20.00;93.70;;;;;;5112586;28;20040;-40
2021/09/08 00:13:56;;;;;;;9.63;7.75;;;20.00;93.70;;;;;;5091992;28;20080;-36
2021/09/08 00:16:22;;;;;;;8.23;7.38;;;20.00;93.70;;;;;;5104601;28;20032;-39
2021/09/08 00:18:48;;;;;;;10.27;8.02;;;20.00;93.80;;;;;;5112857;28;20043;-38
2021/09/08 00:21:13;;;;;;;9.90;8.60;;;19.90;93.70;;;;;;5112952;28;20019;-39
2021/09/08 00:23:39;;;;;;;9.85;8.23;;;19.90;93.80;;;;;;5112854;28;20022;-39
2021/09/08 00:26:04;;;;;;;10.70;8.90;;;19.90;93.80;;;;;;5112670;28;20011;-37
2021/09/08 00:28:30;;;;;;;11.77;8.52;;;19.90;93.80;;;;;;5112648;28;20112;-37
2021/09/08 00:30:56;;;;;;;10.93;8.27;;;19.90;93.80;;;;;;5112047;28;20504;-35
2021/09/08 00:33:21;;;;;;;10.40;8.45;;;19.80;93.80;;;;;;5112895;28;20156;-35
2021/09/08 00:35:48;;;;;;;10.82;8.15;;;19.80;93.80;;;;;;5111674;28;20035;-37
2021/09/08 00:38:14;;;;;;;10.40;8.55;;;19.80;93.80;;;;;;5112948;28;20042;-38
2021/09/08 00:40:42;;;;;;;9.80;8.07;;;19.70;93.80;;;;;;5112666;28;20016;-39
2021/09/08 00:43:08;;;;;;;11.10;8.18;;;19.70;93.90;;;;;;5111862;28;20061;-39
2021/09/08 00:45:34;;;;;;;9.77;7.97;;;19.70;93.90;;;;;;5113113;28;20019;-39
2021/09/08 00:47:59;;;;;;;9.48;7.90;;;19.70;93.90;;;;;;5112065;28;20122;-39
2021/09/08 00:50:26;;;;;;;9.35;8.05;;;19.70;93.90;;;;;;5112066;28;20016;-37
2021/09/08 00:52:57;;;;;;;10.77;8.48;;;19.60;93.90;;;;;;5111663;28;20084;-37
2021/09/08 00:55:25;;;;;;;9.85;8.35;;;19.60;94.00;;;;;;5072389;28;20028;-34
2021/09/08 00:57:51;;;;;;;9.98;8.38;;;19.60;94.00;;;;;;5100831;28;20096;-34
2021/09/08 01:00:17;;;;;;;10.50;8.55;;;19.60;94.00;;;;;;5112451;28;20023;-36
2021/09/08 01:02:43;;;;;;;12.95;9.68;;;19.60;94.00;;;;;;5111777;28;20443;-36
2021/09/08 01:05:09;;;;;;;11.07;8.90;;;19.50;94.00;;;;;;5112109;28;20019;-39
2021/09/08 01:07:35;;;;;;;10.43;8.55;;;19.50;94.10;;;;;;5112168;28;20024;-39
2021/09/08 01:10:01;;;;;;;12.50;8.40;;;19.50;94.10;;;;;;5112307;28;20019;-40
2021/09/08 01:12:29;;;;;;;10.18;8.38;;;19.50;94.20;;;;;;5110556;28;20040;-37
2021/09/08 01:14:55;;;;;;;10.18;8.77;;;19.40;94.20;;;;;;5111611;28;20023;-38
2021/09/08 01:17:21;;;;;;;12.93;9.38;;;19.40;94.30;;;;;;5111675;28;20046;-38
2021/09/08 01:19:46;;;;;;;9.93;8.10;;;19.40;94.30;;;;;;5111774;28;20455;-37
2021/09/08 01:22:12;;;;;;;11.82;8.48;;;19.40;94.30;;;;;;5111843;28;20027;-37
2021/09/08 01:24:43;;;;;;;10.43;8.30;;;19.40;94.40;;;;;;5111354;28;20114;-40
2021/09/08 01:27:09;;;;;;;11.30;8.73;;;19.30;94.40;;;;;;5111457;28;20020;-37
2021/09/08 01:29:34;;;;;;;10.70;8.82;;;19.30;94.40;;;;;;5111370;28;20163;-35
2021/09/08 01:32:00;;;;;;;11.27;9.00;;;19.30;94.50;;;;;;5111388;28;20028;-38
2021/09/08 01:34:28;;;;;;;10.45;8.23;;;19.30;94.50;;;;;;5112033;28;20037;-36
2021/09/08 01:36:54;;;;;;;12.63;9.27;;;19.20;94.50;;;;;;5111479;28;20027;-36
2021/09/08 01:39:21;;;;;;;9.98;8.23;;;19.30;94.60;;;;;;5111654;28;20027;-37
2021/09/08 01:41:53;;;;;;;11.57;8.80;;;19.20;94.60;;;;;;5111076;28;20027;-39
2021/09/08 01:44:20;;;;;;;;;;;19.20;94.70;;;;;;5112085;28;20443;-39
2021/09/08 01:46:47;;;;;;;13.10;10.27;;;19.20;94.70;;;;;;5111158;28;19915;-36
2021/09/08 01:49:16;;;;;;;11.77;9.60;;;19.10;94.80;;;;;;5111551;28;20471;-39
2021/09/08 01:51:41;;;;;;;10.93;8.70;;;19.10;94.90;;;;;;5111673;28;20023;-33
2021/09/08 01:54:07;;;;;;;12.40;9.73;;;19.10;94.90;;;;;;5110520;28;20011;-37
2021/09/08 01:56:33;;;;;;;11.93;9.45;;;19.00;95.00;;;;;;5111602;28;20116;-38
2021/09/08 01:58:58;;;;;;;12.25;9.50;;;19.00;95.00;;;;;;5110437;28;20015;-38
2021/09/08 02:01:27;;;;;;;12.20;9.52;;;18.90;95.10;;;;;;5111315;28;20064;-36
2021/09/08 02:03:52;;;;;;;12.55;10.15;;;18.90;95.10;;;;;;5110545;28;20092;-36
2021/09/08 02:06:24;;;;;;;12.20;9.40;;;19.00;95.20;;;;;;5110774;28;20073;-37
2021/09/08 02:08:53;;;;;;;12.60;9.15;;;18.90;95.20;;;;;;5110452;28;20016;-38
2021/09/08 02:11:19;;;;;;;11.30;9.48;;;18.90;95.30;;;;;;5111176;28;20015;-37
2021/09/08 02:13:46;;;;;;;12.80;9.15;;;18.90;95.30;;;;;;5110405;28;20047;-39
2021/09/08 02:16:12;;;;;;;11.45;10.02;;;18.90;95.40;;;;;;5111257;28;20401;-37
2021/09/08 02:18:37;;;;;;;13.35;10.30;;;18.80;95.40;;;;;;5111285;28;20081;-38
2021/09/08 02:21:03;;;;;;;12.23;9.95;;;18.80;95.50;;;;;;5110111;28;20409;-38
2021/09/08 02:23:29;;;;;;;11.98;9.38;;;18.80;95.60;;;;;;5111188;28;20458;-38
2021/09/08 02:25:54;;;;;;;11.38;9.30;;;18.70;95.60;;;;;;5110355;28;20111;-37
2021/09/08 02:28:20;;;;;;;13.05;10.10;;;18.70;95.70;;;;;;5110701;28;20026;-37
2021/09/08 02:30:47;;;;;;;11.70;9.88;;;18.60;95.70;;;;;;5109955;28;20081;-35
2021/09/08 02:33:17;;;;;;;11.88;9.88;;;18.60;95.80;;;;;;5111211;28;20032;-39
2021/09/08 02:35:43;;;;;;;14.80;10.23;;;18.60;95.80;;;;;;5109931;28;20027;-38
2021/09/08 02:38:11;;;;;;;12.90;9.70;;;18.50;95.90;;;;;;5110411;28;20424;-38
2021/09/08 02:40:37;;;;;;;12.73;10.30;;;18.50;96.00;;;;;;5110243;28;20020;-36
2021/09/08 02:43:03;;;;;;;11.93;9.98;;;18.50;96.00;;;;;;5110205;28;20041;-40
2021/09/08 02:45:28;;;;;;;12.52;10.13;;;18.50;96.10;;;;;;5110815;28;20008;-38
2021/09/08 02:47:54;;;;;;;13.55;11.13;;;18.50;96.20;;;;;;5110389;28;20439;-38
2021/09/08 02:50:19;;;;;;;13.15;10.88;;;18.40;96.20;;;;;;5110493;28;20387;-37
2021/09/08 02:52:45;;;;;;;13.50;10.85;;;18.40;96.30;;;;;;5110543;28;20183;-34
2021/09/08 02:55:23;;;;;;;13.18;10.52;;;18.40;96.40;;;;;;5110277;28;20023;-39
2021/09/08 02:57:48;;;;;;;15.55;11.13;;;18.40;96.40;;;;;;5104221;28;20158;-36
2021/09/08 03:00:14;;;;;;;12.57;10.45;;;18.40;96.40;;;;;;5111210;28;20104;-38
2021/09/08 03:02:40;;;;;;;13.80;10.57;;;18.30;96.50;;;;;;5109434;28;20028;-36
2021/09/08 03:05:06;;;;;;;12.70;10.85;;;18.30;96.50;;;;;;5110779;28;20371;-36
2021/09/08 03:07:32;;;;;;;11.95;10.05;;;18.30;96.60;;;;;;5109970;28;20024;-34
2021/09/08 03:09:57;;;;;;;14.73;10.18;;;18.30;96.70;;;;;;5109115;28;20030;-35
2021/09/08 03:12:25;;;;;;;13.32;10.48;;;18.20;96.70;;;;;;5110243;28;20055;-37
2021/09/08 03:14:51;;;;;;;14.10;11.05;;;18.20;96.80;;;;;;5109872;28;20039;-38
2021/09/08 03:17:16;;;;;;;14.80;12.13;;;18.20;96.80;;;;;;5109351;28;20031;-38
2021/09/08 03:19:42;;;;;;;14.50;11.25;;;18.20;96.90;;;;;;5110148;28;20023;-38
2021/09/08 03:22:07;;;;;;;14.18;11.70;;;18.20;97.00;;;;;;5109828;28;20024;-37
2021/09/08 03:24:33;;;;;;;14.50;11.05;;;18.10;97.00;;;;;;5110037;28;20051;-37
2021/09/08 03:26:58;;;;;;;13.98;11.25;;;18.10;97.10;;;;;;5109394;28;20024;-39
2021/09/08 03:29:24;;;;;;;16.60;11.23;;;18.10;97.10;;;;;;5110400;28;20024;-38
2021/09/08 03:31:49;;;;;;;14.23;10.93;;;18.10;97.20;;;;;;5108351;28;20442;-39
2021/09/08 03:34:18;;;;;;;15.13;11.85;;;18.10;97.20;;;;;;5110788;28;20020;-37
2021/09/08 03:36:43;;;;;;;12.27;10.05;;;18.10;97.30;;;;;;5110161;28;20028;-37
2021/09/08 03:39:09;;;;;;;15.57;11.18;;;18.00;97.30;;;;;;5109165;28;20077;-35
2021/09/08 03:41:34;;;;;;;13.82;11.05;;;18.00;97.30;;;;;;5110206;28;20023;-38
2021/09/08 03:44:00;;;;;;;13.85;10.75;;;18.00;97.40;;;;;;5109261;28;20016;-38
2021/09/08 03:46:25;;;;;;;13.35;11.18;;;18.00;97.40;;;;;;5109907;28;20059;-39
2021/09/08 03:48:51;;;;;;;15.07;11.18;;;18.00;97.50;;;;;;5109047;28;20052;-34
2021/09/08 03:51:16;;;;;;;14.13;10.50;;;18.00;97.50;;;;;;5109796;28;20023;-37
2021/09/08 03:53:42;;;;;;;14.15;10.05;;;17.90;97.50;;;;;;5109307;28;20027;-39
2021/09/08 03:56:07;;;;;;;13.30;10.82;;;17.90;97.90;;;;;;5109823;28;20024;-37
2021/09/08 03:58:40;;;;;;;14.80;11.07;;;17.90;97.70;;;;;;5109780;28;20085;-35
2021/09/08 04:01:05;;;;;;;;;;;17.90;97.70;;;;;;5110031;28;20015;-36
2021/09/08 04:03:31;;;;;;;11.30;9.52;;;17.90;97.70;;;;;;5109676;28;19910;-36
2021/09/08 04:05:56;;;;;;;14.88;10.85;;;17.80;97.70;;;;;;5109146;28;20084;-40
2021/09/08 04:08:22;;;;;;;15.65;11.93;;;17.80;97.70;;;;;;5109618;28;20015;-39
2021/09/08 04:10:50;;;;;;;16.58;11.70;;;17.80;97.80;;;;;;5109267;28;20068;-37
2021/09/08 04:13:18;;;;;;;15.43;11.65;;;17.80;97.90;;;;;;5109202;28;20499;-37
2021/09/08 04:15:44;;;;;;;16.05;11.38;;;17.80;97.90;;;;;;5082891;28;20483;-35
2021/09/08 04:18:09;;;;;;;15.75;11.70;;;17.80;98.00;;;;;;5092112;28;20035;-39
2021/09/08 04:20:35;;;;;;;15.77;12.25;;;17.70;98.00;;;;;;5108615;28;20165;-38
2021/09/08 04:23:00;;;;;;;14.10;11.85;;;17.70;98.00;;;;;;5109241;28;20479;-34
2021/09/08 04:25:26;;;;;;;17.00;12.70;;;17.70;98.10;;;;;;5110097;28;20012;-37
2021/09/08 04:27:51;;;;;;;15.70;11.68;;;17.70;98.10;;;;;;5112779;28;20023;-39
2021/09/08 04:30:17;;;;;;;15.07;11.52;;;17.60;98.20;;;;;;5113009;28;20023;-37
2021/09/08 04:32:45;;;;;;;17.17;11.70;;;17.60;98.20;;;;;;5112614;28;20035;-37
2021/09/08 04:35:11;;;;;;;16.33;11.90;;;17.60;98.30;;;;;;5112001;28;20028;-39
2021/09/08 04:37:37;;;;;;;15.25;11.13;;;17.60;98.30;;;;;;5113642;28;20119;-37
2021/09/08 04:40:06;;;;;;;15.07;12.07;;;17.60;98.30;;;;;;5113055;28;20016;-37
2021/09/08 04:42:31;;;;;;;14.07;11.57;;;17.60;98.40;;;;;;5112846;28;20471;-35
2021/09/08 04:44:57;;;;;;;13.68;11.95;;;17.60;98.40;;;;;;5112544;28;20030;-35
2021/09/08 04:47:22;;;;;;;13.57;12.05;;;17.60;98.50;;;;;;5113155;28;20076;-39
2021/09/08 04:49:48;;;;;;;17.85;12.63;;;17.50;98.50;;;;;;5111733;28;20016;-38
2021/09/08 04:52:15;;;;;;;15.65;11.80;;;17.50;98.50;;;;;;5113156;28;20019;-36
2021/09/08 04:54:41;;;;;;;17.20;12.60;;;17.50;98.60;;;;;;5112567;28;20028;-35
2021/09/08 04:57:06;;;;;;;15.35;11.75;;;17.50;98.60;;;;;;5089188;28;20040;-38
2021/09/08 04:59:32;;;;;;;16.45;12.65;;;17.50;98.70;;;;;;5113017;28;20011;-35
2021/09/08 05:01:57;;;;;;;15.05;11.95;;;17.50;98.70;;;;;;5112022;28;20038;-38
2021/09/08 05:04:26;;;;;;;15.90;11.77;;;17.50;98.70;;;;;;5112410;28;20039;-37
2021/09/08 05:06:54;;;;;;;15.50;12.43;;;17.50;98.80;;;;;;5109684;28;20019;-38
2021/09/08 05:09:20;;;;;;;16.52;11.75;;;17.40;98.80;;;;;;5111955;28;20031;-39
2021/09/08 05:11:45;;;;;;;15.20;11.38;;;17.40;98.80;;;;;;5111959;28;20028;-37
2021/09/08 05:14:14;;;;;;;15.50;12.20;;;17.40;98.80;;;;;;5112722;28;20395;-36
2021/09/08 05:16:40;;;;;;;15.68;11.50;;;17.40;98.90;;;;;;5106802;28;20079;-38
2021/09/08 05:19:05;;;;;;;15.90;11.50;;;17.40;99.00;;;;;;5092801;28;21070;-38
2021/09/08 05:21:33;;;;;;;15.65;11.88;;;17.40;99.00;;;;;;5105694;28;20019;-37
2021/09/08 05:24:04;;;;;;;16.20;12.55;;;17.40;99.00;;;;;;5111167;28;20099;-40
2021/09/08 05:26:30;;;;;;;14.97;11.83;;;17.40;99.00;;;;;;5112328;28;20012;-39
2021/09/08 05:28:59;;;;;;;14.02;12.30;;;17.40;99.00;;;;;;5111684;28;20196;-33
2021/09/08 05:31:24;;;;;;;15.05;12.55;;;17.40;99.10;;;;;;5111383;28;20019;-40
2021/09/08 05:33:50;;;;;;;14.95;11.50;;;17.40;99.10;;;;;;5111152;28;20028;-38
2021/09/08 05:36:15;;;;;;;16.05;11.85;;;17.40;99.10;;;;;;5110195;28;20046;-39
2021/09/08 05:38:42;;;;;;;16.05;11.70;;;17.40;99.40;;;;;;5093763;28;20108;-35
2021/09/08 05:41:10;;;;;;;15.95;11.93;;;17.40;99.10;;;;;;5086312;28;20498;-37
2021/09/08 05:43:36;;;;;;;15.80;11.45;;;17.40;99.10;;;;;;5089835;28;20028;-39
2021/09/08 05:46:02;;;;;;;16.67;12.20;;;17.40;99.20;;;;;;5084511;28;20036;-35
2021/09/08 05:48:34;;;;;;;16.75;12.30;;;17.40;99.20;;;;;;5102063;28;20479;-36
2021/09/08 05:51:00;;;;;;;16.75;11.90;;;17.40;99.20;;;;;;5105820;28;20024;-40
2021/09/08 05:53:26;;;;;;;15.95;12.30;;;17.40;99.20;;;;;;5106479;28;20270;-39
2021/09/08 05:55:54;;;;;;;17.08;12.93;;;17.40;99.20;;;;;;5111865;28;20415;-39
2021/09/08 05:58:19;;;;;;;16.48;12.90;;;17.40;99.20;;;;;;5111300;28;20561;-39
2021/09/08 06:00:45;;;;;;;16.85;12.32;;;17.50;99.50;;;;;;5110627;28;20023;-39
2021/09/08 06:03:10;;;;;;;15.52;12.50;;;17.50;99.30;;;;;;5111861;28;20069;-34
2021/09/08 06:05:36;;;;;;;15.10;11.80;;;17.50;99.30;;;;;;5105249;28;21466;-38
2021/09/08 06:08:01;;;;;;;15.13;12.15;;;17.50;99.30;;;;;;5103423;28;20034;-39
2021/09/08 06:10:27;;;;;;;14.68;12.02;;;17.50;99.30;;;;;;5082356;28;20017;-37
2021/09/08 06:12:53;;;;;;;14.70;12.52;;;17.50;99.30;;;;;;5086237;28;20052;-40
2021/09/08 06:15:20;;;;;;;16.42;12.32;;;17.60;99.40;;;;;;5104405;28;20020;-38
2021/09/08 06:17:46;;;;;;;14.05;11.68;;;17.60;99.40;;;;;;5110867;28;20038;-39
2021/09/08 06:20:12;;;;;;;15.95;12.32;;;17.60;99.40;;;;;;5110559;28;20020;-36
2021/09/08 06:22:37;;;;;;;15.30;12.52;;;17.60;99.40;;;;;;5110675;28;20042;-36
2021/09/08 06:25:04;;;;;;;16.23;12.98;;;17.70;99.50;;;;;;5088647;28;20455;-40
2021/09/08 06:27:29;;;;;;;15.77;12.07;;;17.70;99.50;;;;;;5096432;28;20097;-39
2021/09/08 06:29:55;;;;;;;17.50;13.05;;;17.70;99.40;;;;;;5090043;28;20024;-39
2021/09/08 06:32:23;;;;;;;16.23;13.40;;;17.80;99.50;;;;;;5080710;28;20103;-38
2021/09/08 06:34:49;;;;;;;15.57;12.77;;;17.80;99.50;;;;;;5109631;28;20076;-40
2021/09/08 06:37:15;;;;;;;15.60;12.73;;;17.80;99.50;;;;;;5109502;28;20031;-38
2021/09/08 06:39:41;;;;;;;16.38;13.35;;;17.80;99.50;;;;;;5084981;28;20048;-39
2021/09/08 06:42:07;;;;;;;15.82;11.75;;;17.90;99.50;;;;;;5083187;28;20063;-36
2021/09/08 06:44:49;;;;;;;17.17;12.88;;;17.90;99.40;;;;;;5086253;28;20020;-39
2021/09/08 06:47:15;;;;;;;17.30;14.07;;;17.90;99.40;;;;;;5087323;28;20471;-40
2021/09/08 06:49:40;;;;;;;16.45;13.55;;;18.00;99.40;;;;;;5101831;28;20297;-41
2021/09/08 06:52:10;;;;;;;15.32;13.05;;;18.00;99.40;;;;;;5108248;28;20042;-41
2021/09/08 06:54:35;;;;;;;17.08;12.93;;;18.10;99.40;;;;;;5110273;28;20035;-39
2021/09/08 06:57:01;;;;;;;15.00;12.10;;;18.10;99.30;;;;;;5090394;28;20035;-38
2021/09/08 06:59:27;;;;;;;14.82;12.13;;;18.10;99.30;;;;;;5100790;28;20059;-40
2021/09/08 07:01:52;;;;;;;17.40;13.32;;;18.20;99.30;;;;;;5108923;28;20054;-40
2021/09/08 07:04:18;;;;;;;16.05;13.25;;;18.20;99.30;;;;;;5109804;28;20197;-40
2021/09/08 07:06:43;;;;;;;20.80;14.30;;;18.30;99.30;;;;;;5108810;28;20119;-37
2021/09/08 07:09:09;;;;;;;18.02;12.90;;;18.30;99.20;;;;;;5108713;28;20027;-43
2021/09/08 07:11:35;;;;;;;13.00;10.95;;;18.40;99.20;;;;;;5103675;28;20039;-41
2021/09/08 07:14:00;;;;;;;15.73;11.95;;;18.40;99.10;;;;;;5084305;28;20040;-44
2021/09/08 07:16:26;;;;;;;17.35;12.05;;;18.40;99.10;;;;;;5098642;28;20360;-41
2021/09/08 07:18:51;;;;;;;16.13;11.20;;;18.50;99.10;;;;;;5093835;28;20376;-38
2021/09/08 07:21:17;;;;;;;13.43;10.88;;;18.60;99.10;;;;;;5109425;28;20012;-40
2021/09/08 07:23:42;;;;;;;13.05;10.95;;;18.60;99.00;;;;;;5109350;28;20107;-38
2021/09/08 07:26:08;;;;;;;13.68;10.77;;;18.60;99.00;;;;;;5100992;28;20027;-41
2021/09/08 07:28:33;;;;;;;17.27;12.68;;;18.70;99.00;;;;;;5077297;28;20027;-42
2021/09/08 07:30:59;;;;;;;15.10;12.70;;;18.70;98.90;;;;;;5085789;28;20034;-39
2021/09/08 07:33:25;;;;;;;13.25;10.93;;;18.80;98.90;;;;;;5087965;28;20340;-37
2021/09/08 07:35:51;;;;;;;14.20;11.23;;;18.80;98.80;;;;;;5101418;28;20077;-39
2021/09/08 07:38:18;;;;;;;13.52;11.15;;;18.90;98.80;;;;;;5109830;28;20047;-39
2021/09/08 07:40:45;;;;;;;13.85;11.20;;;18.90;98.70;;;;;;5110069;28;20028;-39
2021/09/08 07:43:11;;;;;;;15.95;11.60;;;19.00;98.70;;;;;;5098359;28;20429;-39
2021/09/08 07:45:37;;;;;;;14.40;10.40;;;19.00;98.70;;;;;;5094625;28;20292;-39
2021/09/08 07:48:02;;;;;;;12.43;10.45;;;19.10;98.70;;;;;;5110077;28;20035;-37
2021/09/08 07:50:28;;;;;;;10.68;9.45;;;19.10;98.60;;;;;;5109595;28;20023;-40
2021/09/08 07:52:54;;;;;;;14.15;10.57;;;19.20;98.60;;;;;;5089376;28;20032;-41
2021/09/08 07:55:19;;;;;;;13.07;10.30;;;19.20;98.50;;;;;;5092848;28;20053;-38
2021/09/08 07:57:45;;;;;;;12.07;9.98;;;19.30;98.50;;;;;;5108406;28;20032;-40
2021/09/08 08:00:11;;;;;;;11.77;10.25;;;19.30;98.50;;;;;;5108314;28;20032;-37
2021/09/08 08:02:44;;;;;;;12.88;10.75;;;19.40;98.40;;;;;;5112984;28;20554;-39
2021/09/08 08:05:10;;;;;;;12.98;9.50;;;19.50;98.40;;;;;;5112909;28;20054;-35
2021/09/08 08:07:36;;;;;;;10.43;9.02;;;19.50;98.30;;;;;;5112032;28;20462;-41
2021/09/08 08:10:05;;;;;;;12.05;9.45;;;19.60;98.60;;;;;;5093374;28;20024;-42
2021/09/08 08:12:30;;;;;;;10.60;9.25;;;19.60;98.20;;;;;;5107984;28;20039;-39
2021/09/08 08:15:06;;;;;;;10.35;8.95;;;19.70;98.20;;;;;;5112936;28;20038;-38
2021/09/08 08:17:32;;;;;;;10.07;8.50;;;19.70;98.20;;;;;;5113577;28;20066;-40
2021/09/08 08:19:58;;;;;;;16.63;10.65;;;19.70;98.10;;;;;;5111661;28;20052;-40
2021/09/08 08:22:24;;;;;;;12.63;10.48;;;19.80;98.10;;;;;;5111824;28;20110;-41
2021/09/08 08:24:49;;;;;;;12.40;10.38;;;19.90;98.10;;;;;;5113238;28;20497;-35
2021/09/08 08:27:15;;;;;;;13.82;10.20;;;19.90;98.00;;;;;;5113450;28;20028;-40
2021/09/08 08:29:40;;;;;;;12.45;9.80;;;20.00;98.00;;;;;;5113439;28;20020;-37
2021/09/08 08:32:06;;;;;;;9.20;8.15;;;20.00;98.00;;;;;;5112752;28;20443;-41
2021/09/08 08:34:32;;;;;;;11.48;9.35;;;20.00;98.00;;;;;;5112975;28;20396;-39
2021/09/08 08:36:57;;;;;;;11.13;9.75;;;20.10;98.00;;;;;;5112120;28;20031;-40
2021/09/08 08:39:23;;;;;;;13.02;10.75;;;20.20;98.00;;;;;;5113388;28;20012;-39
2021/09/08 08:41:49;;;;;;;14.45;11.38;;;20.20;98.00;;;;;;5112682;28;20102;-39
2021/09/08 08:44:22;;;;;;;10.68;9.02;;;20.20;98.00;;;;;;5113009;28;20092;-40
2021/09/08 08:46:49;;;;;;;14.43;10.43;;;20.30;97.90;;;;;;5112775;28;20148;-36
2021/09/08 08:49:16;;;;;;;16.67;12.07;;;20.30;97.90;;;;;;5112097;28;20016;-38
2021/09/08 08:51:42;;;;;;;15.43;11.13;;;20.40;97.90;;;;;;5113163;28;20028;-43
2021/09/08 08:54:07;;;;;;;15.55;11.38;;;20.40;97.90;;;;;;5110198;28;20076;-37
2021/09/08 08:56:33;;;;;;;12.82;10.50;;;20.50;97.90;;;;;;5113050;28;20289;-39
2021/09/08 08:58:58;;;;;;;13.82;11.00;;;20.50;97.90;;;;;;5111658;28;20451;-39
2021/09/08 09:01:26;;;;;;;11.48;9.70;;;20.50;97.80;;;;;;5110893;28;20426;-40
2021/09/08 09:04:06;;;;;;;12.20;10.18;;;20.60;97.80;;;;;;5110770;28;20117;-41
2021/09/08 09:06:42;;;;;;;12.25;9.65;;;20.70;97.70;;;;;;5111043;28;20604;-35
2021/09/08 09:09:15;;;;;;;12.25;9.70;;;20.70;97.70;;;;;;5110189;28;20028;-41
2021/09/08 09:11:43;;;;;;;10.13;8.27;;;20.80;97.60;;;;;;5111115;28;20470;-39
2021/09/08 09:14:11;;;;;;;13.65;10.68;;;20.80;97.60;;;;;;5112096;28;20020;-40
2021/09/08 09:16:41;;;;;;;11.57;10.07;;;20.90;97.60;;;;;;5111991;28;20039;-41
2021/09/08 09:19:09;;;;;;;11.63;9.35;;;20.90;97.50;;;;;;5109629;28;20019;-37
2021/09/08 09:21:35;;;;;;;14.35;10.98;;;21.00;97.50;;;;;;5106101;28;20019;-40
2021/09/08 09:24:03;;;;;;;12.35;9.30;;;21.00;97.50;;;;;;5109629;28;20026;-36
2021/09/08 09:26:32;;;;;;;13.02;11.02;;;21.10;97.50;;;;;;5110557;28;20081;-41
2021/09/08 09:29:10;;;;;;;15.95;9.98;;;21.10;97.40;;;;;;5110761;28;20482;-40
2021/09/08 09:31:56;;;;;;;11.38;9.93;;;21.30;97.30;;;;;;5112078;28;20684;-40
2021/09/08 09:34:23;;;;;;;11.18;9.43;;;21.30;97.20;;;;;;5111655;28;20020;-38
2021/09/08 09:37:12;;;;;;;11.95;10.02;;;21.40;97.20;;;;;;5087403;28;20054;-40
2021/09/08 09:39:39;;;;;;;9.48;8.05;;;21.40;97.20;;;;;;5087594;28;20123;-41
2021/09/08 09:42:12;;;;;;;10.18;8.18;;;21.50;97.10;;;;;;5111617;28;20065;-39
2021/09/08 09:44:40;;;;;;;12.90;9.02;;;21.50;97.10;;;;;;5110901;28;20027;-40
2021/09/08 09:47:06;;;;;;;14.35;9.85;;;21.60;97.10;;;;;;5111106;28;20032;-39
2021/09/08 09:49:33;;;;;;;10.00;8.32;;;21.60;97.00;;;;;;5111428;28;20023;-41
2021/09/08 09:52:02;;;;;;;9.77;8.00;;;21.70;96.90;;;;;;5110883;28;20038;-37
2021/09/08 09:54:27;;;;;;;9.93;8.05;;;21.70;96.80;;;;;;5112069;28;20084;-33
2021/09/08 09:56:54;;;;;;;9.52;7.85;;;21.80;96.80;;;;;;5111296;28;20150;-40
2021/09/08 09:59:21;;;;;;;9.90;7.70;;;21.80;96.70;;;;;;5111136;28;20023;-39
2021/09/08 10:01:47;;;;;;;10.32;8.70;;;21.90;96.60;;;;;;5111281;28;20033;-41
2021/09/08 10:04:16;;;;;;;10.77;8.95;;;21.90;96.60;;;;;;5111470;28;20024;-39
2021/09/08 10:06:50;;;;;;;9.27;7.32;;;22.00;96.50;;;;;;5110235;28;20026;-38
2021/09/08 10:09:18;;;;;;;8.98;7.85;;;22.10;96.50;;;;;;5110556;28;20023;-37
2021/09/08 10:11:49;;;;;;;9.73;8.38;;;22.10;96.40;;;;;;5108764;28;20028;-39
2021/09/08 10:14:23;;;;;;;10.18;8.20;;;22.20;96.30;;;;;;5110121;28;20863;-41
2021/09/08 10:16:49;;;;;;;9.98;8.45;;;22.20;96.30;;;;;;5109011;28;20039;-40
2021/09/08 10:19:23;;;;;;;10.23;8.40;;;22.20;96.20;;;;;;5110331;28;20203;-40
2021/09/08 10:21:52;;;;;;;10.05;7.65;;;22.30;96.20;;;;;;5109486;28;20042;-41
2021/09/08 10:24:19;;;;;;;9.23;7.93;;;22.30;96.10;;;;;;5109818;28;20028;-39
2021/09/08 10:26:45;;;;;;;11.32;8.70;;;22.40;96.10;;;;;;5110455;28;20030;-37
2021/09/08 10:29:13;;;;;;;10.43;7.45;;;22.40;95.90;;;;;;5110390;28;20020;-38
2021/09/08 10:31:42;;;;;;;10.50;8.70;;;22.50;95.90;;;;;;5110798;28;20035;-39
2021/09/08 10:34:11;;;;;;;9.05;7.40;;;22.50;95.90;;;;;;5110426;28;20028;-39
2021/09/08 10:36:40;;;;;;;9.20;8.07;;;22.60;95.80;;;;;;5110456;28;20042;-38
2021/09/08 10:39:14;;;;;;;9.00;7.90;;;22.70;95.70;;;;;;5110672;28;20285;-40
2021/09/08 10:41:46;;;;;;;8.70;7.20;;;22.80;95.60;;;;;;5109838;28;20103;-43
2021/09/08 10:44:14;;;;;;;8.85;6.93;;;22.80;95.60;;;;;;5110648;28;20080;-39
2021/09/08 10:46:51;;;;;;;8.57;7.68;;;22.90;95.50;;;;;;5108763;28;20034;-41
2021/09/08 10:49:41;;;;;;;8.98;8.07;;;22.90;95.50;;;;;;5109187;28;20023;-40
2021/09/08 10:52:12;;;;;;;11.05;8.98;;;23.00;95.40;;;;;;5108522;28;20382;-34
2021/09/08 10:54:56;;;;;;;13.40;8.30;;;23.10;95.20;;;;;;5108302;28;20024;-35
2021/09/08 10:57:52;;;;;;;9.65;7.28;;;23.20;95.10;;;;;;5108508;28;20063;-39
2021/09/08 11:00:20;;;;;;;8.00;6.90;;;23.30;95.30;;;;;;5109502;28;20046;-41
2021/09/08 11:02:46;;;;;;;9.05;7.25;;;23.20;95.00;;;;;;5108847;28;20109;-42
2021/09/08 11:05:16;;;;;;;9.57;8.57;;;23.30;95.00;;;;;;5110274;28;20077;-37
2021/09/08 11:07:50;;;;;;;9.65;8.40;;;23.30;95.00;;;;;;5109757;28;20471;-40
2021/09/08 11:10:32;;;;;;;11.30;7.20;;;23.40;94.90;;;;;;5109796;28;20055;-41
2021/09/08 11:13:01;;;;;;;9.70;7.53;;;23.40;94.90;;;;;;5109183;28;20071;-39
2021/09/08 11:15:31;;;;;;;8.88;7.40;;;23.40;94.90;;;;;;5108467;28;20497;-38
2021/09/08 11:17:57;;;;;;;8.27;7.47;;;23.40;94.80;;;;;;5108196;28;20033;-40
2021/09/08 11:20:23;;;;;;;9.35;7.43;;;23.50;94.90;;;;;;5108892;28;20417;-39
2021/09/08 11:23:05;;;;;;;7.38;6.68;;;23.50;94.80;;;;;;5108894;28;20537;-41
2021/09/08 11:25:36;;;;;;;8.02;6.95;;;23.60;94.70;;;;;;5108568;28;20020;-40
2021/09/08 11:28:03;;;;;;;7.95;7.15;;;23.60;94.70;;;;;;5108436;28;20020;-42
2021/09/08 11:30:34;;;;;;;7.57;6.88;;;23.70;94.50;;;;;;5108861;28;20016;-39
2021/09/08 11:33:20;;;;;;;7.70;6.70;;;23.80;94.40;;;;;;5101859;28;20034;-40
2021/09/08 11:35:50;;;;;;;9.13;7.90;;;23.80;94.20;;;;;;5095768;28;20023;-39
2021/09/08 11:38:18;;;;;;;8.95;8.02;;;23.90;94.20;;;;;;5113723;28;20040;-39
2021/09/08 11:40:48;;;;;;;11.63;7.78;;;24.00;94.10;;;;;;5114631;28;20027;-43
2021/09/08 11:43:29;;;;;;;8.20;7.40;;;24.00;94.00;;;;;;5114347;28;20161;-38
2021/09/08 11:45:55;;;;;;;7.97;7.10;;;24.10;94.00;;;;;;5093215;28;20023;-41
2021/09/08 11:48:30;;;;;;;7.90;7.10;;;24.10;93.90;;;;;;5098421;28;20016;-42
2021/09/08 11:51:04;;;;;;;8.18;6.75;;;24.10;93.70;;;;;;5087343;28;20220;-42
2021/09/08 11:53:34;;;;;;;7.15;6.45;;;24.20;93.60;;;;;;5080000;28;20036;-40
2021/09/08 11:56:11;;;;;;;7.22;6.25;;;24.20;93.50;;;;;;5113180;28;20026;-42
2021/09/08 11:58:38;;;;;;;7.13;6.47;;;24.30;93.40;;;;;;5112864;28;20039;-40
2021/09/08 12:01:13;;;;;;;8.10;6.78;;;24.30;93.10;;;;;;5113632;28;20020;-41
2021/09/08 12:03:50;;;;;;;7.10;6.40;;;24.30;93.10;;;;;;5112953;28;20420;-40
2021/09/08 12:06:17;;;;;;;6.53;5.93;;;24.40;93.10;;;;;;5112936;28;20736;-42
2021/09/08 12:09:11;;;;;;;6.35;5.75;;;24.50;93.10;;;;;;5113881;28;20016;-37
2021/09/08 12:11:48;;;;;;;6.30;5.70;;;24.50;93.00;;;;;;5112880;28;20024;-42
2021/09/08 12:14:31;;;;;;;8.07;6.30;;;24.50;92.90;;;;;;5094801;28;20129;-40
2021/09/08 12:17:14;;;;;;;6.68;6.07;;;24.60;92.60;;;;;;5093105;28;20035;-42
2021/09/08 12:19:41;;;;;;;8.15;6.90;;;24.60;92.50;;;;;;5112770;28;20386;-39
2021/09/08 12:22:19;;;;;;;6.60;5.90;;;24.70;92.40;;;;;;5113624;28;20043;-38
2021/09/08 12:24:45;;;;;;;6.63;6.03;;;24.70;92.30;;;;;;5112622;28;20019;-42
2021/09/08 12:27:27;;;;;;;7.20;5.55;;;24.70;92.30;;;;;;5111662;28;20024;-36
2021/09/08 12:30:05;;;;;;;6.53;5.93;;;24.70;92.20;;;;;;5111545;28;20023;-36
2021/09/08 12:33:02;;;;;;;8.18;6.47;;;24.80;92.10;;;;;;5092343;28;20103;-39
2021/09/08 12:35:47;;;;;;;7.35;6.65;;;24.80;91.80;;;;;;5111744;28;20431;-38
2021/09/08 12:38:34;;;;;;;9.93;7.55;;;24.90;91.70;;;;;;5113981;28;20036;-41
2021/09/08 12:41:08;;;;;;;7.43;6.32;;;25.00;91.50;;;;;;5111486;28;20041;-39